sensor_id;sensor_type;location;lat;lon;timestamp;P1;durP1;ratioP1;P2;durP2;ratioP2
22129;SDS011;11231;50.746;4.272;2023-11-22T00:00:10;37.73;;;21.97;;
22129;SDS011;11231;50.746;4.272;2023-11-22T00:02:37;40.30;;;22.80;;
22129;SDS011;11231;50.746;4.272;2023-11-22T00:05:03;37.37;;;21.33;;
22129;SDS011;11231;50.746;4.272;2023-11-22T00:07:30;39.00;;;22.30;;
22129;SDS011;11231;50.746;4.272;2023-11-22T00:09:59;40.70;;;22.70;;
22129;SDS011;11231;50.746;4.272;2023-11-22T00:12:26;39.47;;;21.77;;
22129;SDS011;11231;50.746;4.272;2023-11-22T00:14:53;38.47;;;21.70;;
22129;SDS011;11231;50.746;4.272;2023-11-22T00:17:19;43.07;;;23.27;;
22129;SDS011;11231;50.746;4.272;2023-11-22T00:19:45;41.40;;;22.47;;
22129;SDS011;11231;50.746;4.272;2023-11-22T00:22:11;36.97;;;21.73;;
22129;SDS011;11231;50.746;4.272;2023-11-22T00:24:40;37.43;;;19.83;;
22129;SDS011;11231;50.746;4.272;2023-11-22T00:27:06;38.57;;;21.77;;
22129;SDS011;11231;50.746;4.272;2023-11-22T00:29:32;40.23;;;22.50;;
22129;SDS011;11231;50.746;4.272;2023-11-22T00:31:58;41.73;;;23.87;;
22129;SDS011;11231;50.746;4.272;2023-11-22T00:34:25;39.00;;;21.87;;
22129;SDS011;11231;50.746;4.272;2023-11-22T00:36:51;38.03;;;22.73;;
22129;SDS011;11231;50.746;4.272;2023-11-22T00:39:17;41.53;;;24.17;;
22129;SDS011;11231;50.746;4.272;2023-11-22T00:41:43;41.10;;;21.77;;
22129;SDS011;11231;50.746;4.272;2023-11-22T00:44:09;45.20;;;24.43;;
22129;SDS011;11231;50.746;4.272;2023-11-22T00:46:35;43.73;;;23.33;;
22129;SDS011;11231;50.746;4.272;2023-11-22T00:49:04;41.13;;;22.83;;
22129;SDS011;11231;50.746;4.272;2023-11-22T00:51:32;43.40;;;23.60;;
22129;SDS011;11231;50.746;4.272;2023-11-22T00:53:58;42.93;;;23.57;;
22129;SDS011;11231;50.746;4.272;2023-11-22T00:56:24;46.20;;;24.57;;
22129;SDS011;11231;50.746;4.272;2023-11-22T00:58:50;42.07;;;23.47;;
22129;SDS011;11231;50.746;4.272;2023-11-22T01:01:21;45.00;;;23.70;;
22129;SDS011;11231;50.746;4.272;2023-11-22T01:03:47;46.97;;;24.83;;
22129;SDS011;11231;50.746;4.272;2023-11-22T01:06:13;41.17;;;22.80;;
22129;SDS011;11231;50.746;4.272;2023-11-22T01:08:39;43.97;;;22.93;;
22129;SDS011;11231;50.746;4.272;2023-11-22T01:11:05;42.17;;;22.80;;
22129;SDS011;11231;50.746;4.272;2023-11-22T01:13:32;45.50;;;24.97;;
22129;SDS011;11231;50.746;4.272;2023-11-22T01:16:11;44.33;;;23.60;;
22129;SDS011;11231;50.746;4.272;2023-11-22T01:18:37;43.33;;;23.27;;
22129;SDS011;11231;50.746;4.272;2023-11-22T01:21:03;43.93;;;23.23;;
22129;SDS011;11231;50.746;4.272;2023-11-22T01:23:30;44.00;;;24.60;;
22129;SDS011;11231;50.746;4.272;2023-11-22T01:25:57;44.57;;;23.63;;
22129;SDS011;11231;50.746;4.272;2023-11-22T01:28:24;44.00;;;24.33;;
22129;SDS011;11231;50.746;4.272;2023-11-22T01:30:52;45.57;;;24.20;;
22129;SDS011;11231;50.746;4.272;2023-11-22T01:33:20;44.10;;;23.40;;
22129;SDS011;11231;50.746;4.272;2023-11-22T01:35:46;43.40;;;24.00;;
22129;SDS011;11231;50.746;4.272;2023-11-22T01:38:12;49.53;;;25.33;;
22129;SDS011;11231;50.746;4.272;2023-11-22T01:40:47;44.83;;;24.63;;
22129;SDS011;11231;50.746;4.272;2023-11-22T01:43:20;45.33;;;24.57;;
22129;SDS011;11231;50.746;4.272;2023-11-22T01:45:49;46.70;;;24.40;;
22129;SDS011;11231;50.746;4.272;2023-11-22T01:48:15;43.80;;;24.73;;
22129;SDS011;11231;50.746;4.272;2023-11-22T01:50:44;43.00;;;24.10;;
22129;SDS011;11231;50.746;4.272;2023-11-22T01:53:10;50.20;;;24.73;;
22129;SDS011;11231;50.746;4.272;2023-11-22T01:55:37;45.67;;;24.70;;
22129;SDS011;11231;50.746;4.272;2023-11-22T01:58:04;44.90;;;23.80;;
22129;SDS011;11231;50.746;4.272;2023-11-22T02:00:32;43.73;;;23.57;;
22129;SDS011;11231;50.746;4.272;2023-11-22T02:03:01;44.83;;;24.10;;
22129;SDS011;11231;50.746;4.272;2023-11-22T02:05:27;45.10;;;24.77;;
22129;SDS011;11231;50.746;4.272;2023-11-22T02:07:53;46.27;;;26.13;;
22129;SDS011;11231;50.746;4.272;2023-11-22T02:10:20;45.97;;;24.27;;
22129;SDS011;11231;50.746;4.272;2023-11-22T02:12:46;46.47;;;25.07;;
22129;SDS011;11231;50.746;4.272;2023-11-22T02:15:12;47.57;;;25.27;;
22129;SDS011;11231;50.746;4.272;2023-11-22T02:17:38;47.27;;;24.87;;
22129;SDS011;11231;50.746;4.272;2023-11-22T02:20:04;45.27;;;24.23;;
22129;SDS011;11231;50.746;4.272;2023-11-22T02:22:34;47.73;;;24.87;;
22129;SDS011;11231;50.746;4.272;2023-11-22T02:25:11;44.47;;;24.20;;
22129;SDS011;11231;50.746;4.272;2023-11-22T02:27:37;47.77;;;24.53;;
22129;SDS011;11231;50.746;4.272;2023-11-22T02:30:03;45.73;;;24.40;;
22129;SDS011;11231;50.746;4.272;2023-11-22T02:32:31;45.10;;;24.07;;
22129;SDS011;11231;50.746;4.272;2023-11-22T02:34:58;46.67;;;23.90;;
22129;SDS011;11231;50.746;4.272;2023-11-22T02:37:25;42.57;;;23.57;;
22129;SDS011;11231;50.746;4.272;2023-11-22T02:40:04;45.63;;;23.73;;
22129;SDS011;11231;50.746;4.272;2023-11-22T02:42:36;45.60;;;23.30;;
22129;SDS011;11231;50.746;4.272;2023-11-22T02:45:03;43.97;;;24.33;;
22129;SDS011;11231;50.746;4.272;2023-11-22T02:47:31;46.53;;;24.23;;
22129;SDS011;11231;50.746;4.272;2023-11-22T02:49:57;41.67;;;23.27;;
22129;SDS011;11231;50.746;4.272;2023-11-22T02:52:22;42.37;;;21.93;;
22129;SDS011;11231;50.746;4.272;2023-11-22T02:54:49;43.87;;;23.57;;
22129;SDS011;11231;50.746;4.272;2023-11-22T02:57:15;42.27;;;21.10;;
22129;SDS011;11231;50.746;4.272;2023-11-22T02:59:43;44.23;;;23.67;;
22129;SDS011;11231;50.746;4.272;2023-11-22T03:02:10;43.47;;;22.27;;
22129;SDS011;11231;50.746;4.272;2023-11-22T03:04:36;43.47;;;22.63;;
22129;SDS011;11231;50.746;4.272;2023-11-22T03:07:02;43.17;;;22.63;;
22129;SDS011;11231;50.746;4.272;2023-11-22T03:09:28;47.20;;;24.17;;
22129;SDS011;11231;50.746;4.272;2023-11-22T03:11:54;48.73;;;23.63;;
22129;SDS011;11231;50.746;4.272;2023-11-22T03:14:21;44.77;;;24.40;;
22129;SDS011;11231;50.746;4.272;2023-11-22T03:16:47;48.10;;;24.70;;
22129;SDS011;11231;50.746;4.272;2023-11-22T03:19:13;47.17;;;24.60;;
22129;SDS011;11231;50.746;4.272;2023-11-22T03:21:40;49.10;;;24.50;;
22129;SDS011;11231;50.746;4.272;2023-11-22T03:24:07;49.00;;;25.23;;
22129;SDS011;11231;50.746;4.272;2023-11-22T03:26:33;45.90;;;23.87;;
22129;SDS011;11231;50.746;4.272;2023-11-22T03:29:00;46.30;;;24.23;;
22129;SDS011;11231;50.746;4.272;2023-11-22T03:31:28;44.70;;;23.67;;
22129;SDS011;11231;50.746;4.272;2023-11-22T03:33:54;46.53;;;24.40;;
22129;SDS011;11231;50.746;4.272;2023-11-22T03:36:21;47.73;;;25.10;;
22129;SDS011;11231;50.746;4.272;2023-11-22T03:38:48;44.93;;;23.57;;
22129;SDS011;11231;50.746;4.272;2023-11-22T03:41:14;43.73;;;23.07;;
22129;SDS011;11231;50.746;4.272;2023-11-22T03:43:40;47.63;;;23.10;;
22129;SDS011;11231;50.746;4.272;2023-11-22T03:46:06;45.63;;;23.17;;
22129;SDS011;11231;50.746;4.272;2023-11-22T03:48:32;46.00;;;23.60;;
22129;SDS011;11231;50.746;4.272;2023-11-22T03:50:59;41.57;;;22.30;;
22129;SDS011;11231;50.746;4.272;2023-11-22T03:53:25;41.43;;;22.00;;
22129;SDS011;11231;50.746;4.272;2023-11-22T03:55:52;47.67;;;23.53;;
22129;SDS011;11231;50.746;4.272;2023-11-22T03:58:18;46.83;;;23.83;;
22129;SDS011;11231;50.746;4.272;2023-11-22T04:00:43;48.07;;;23.10;;
22129;SDS011;11231;50.746;4.272;2023-11-22T04:03:09;47.03;;;24.17;;
22129;SDS011;11231;50.746;4.272;2023-11-22T04:05:35;48.13;;;23.40;;
22129;SDS011;11231;50.746;4.272;2023-11-22T04:08:00;41.50;;;21.70;;
22129;SDS011;11231;50.746;4.272;2023-11-22T04:10:26;47.33;;;23.13;;
22129;SDS011;11231;50.746;4.272;2023-11-22T04:12:52;45.53;;;22.17;;
22129;SDS011;11231;50.746;4.272;2023-11-22T04:15:18;44.17;;;21.83;;
22129;SDS011;11231;50.746;4.272;2023-11-22T04:17:44;47.80;;;23.17;;
22129;SDS011;11231;50.746;4.272;2023-11-22T04:20:10;43.77;;;23.23;;
22129;SDS011;11231;50.746;4.272;2023-11-22T04:22:44;41.53;;;21.50;;
22129;SDS011;11231;50.746;4.272;2023-11-22T04:25:12;41.00;;;21.90;;
22129;SDS011;11231;50.746;4.272;2023-11-22T04:27:39;43.00;;;22.07;;
22129;SDS011;11231;50.746;4.272;2023-11-22T04:30:06;44.67;;;22.57;;
22129;SDS011;11231;50.746;4.272;2023-11-22T04:32:35;40.30;;;21.10;;
22129;SDS011;11231;50.746;4.272;2023-11-22T04:35:01;45.40;;;22.90;;
22129;SDS011;11231;50.746;4.272;2023-11-22T04:37:30;40.40;;;20.93;;
22129;SDS011;11231;50.746;4.272;2023-11-22T04:40:00;42.43;;;21.73;;
22129;SDS011;11231;50.746;4.272;2023-11-22T04:42:33;38.70;;;21.17;;
22129;SDS011;11231;50.746;4.272;2023-11-22T04:45:01;41.87;;;21.47;;
22129;SDS011;11231;50.746;4.272;2023-11-22T04:47:27;41.93;;;21.47;;
22129;SDS011;11231;50.746;4.272;2023-11-22T04:49:53;41.53;;;21.40;;
22129;SDS011;11231;50.746;4.272;2023-11-22T04:52:19;41.73;;;21.47;;
22129;SDS011;11231;50.746;4.272;2023-11-22T04:54:44;48.93;;;23.97;;
22129;SDS011;11231;50.746;4.272;2023-11-22T04:57:10;49.53;;;23.80;;
22129;SDS011;11231;50.746;4.272;2023-11-22T04:59:36;44.60;;;22.77;;
22129;SDS011;11231;50.746;4.272;2023-11-22T05:02:03;50.20;;;24.70;;
22129;SDS011;11231;50.746;4.272;2023-11-22T05:04:29;46.70;;;23.40;;
22129;SDS011;11231;50.746;4.272;2023-11-22T05:06:55;44.90;;;23.73;;
22129;SDS011;11231;50.746;4.272;2023-11-22T05:09:21;44.27;;;23.80;;
22129;SDS011;11231;50.746;4.272;2023-11-22T05:11:47;47.73;;;23.30;;
22129;SDS011;11231;50.746;4.272;2023-11-22T05:14:12;42.53;;;22.93;;
22129;SDS011;11231;50.746;4.272;2023-11-22T05:16:38;45.57;;;24.33;;
22129;SDS011;11231;50.746;4.272;2023-11-22T05:19:04;47.73;;;23.73;;
22129;SDS011;11231;50.746;4.272;2023-11-22T05:21:31;45.17;;;23.53;;
22129;SDS011;11231;50.746;4.272;2023-11-22T05:23:57;43.30;;;22.13;;
22129;SDS011;11231;50.746;4.272;2023-11-22T05:26:24;43.37;;;22.50;;
22129;SDS011;11231;50.746;4.272;2023-11-22T05:28:50;39.30;;;21.27;;
22129;SDS011;11231;50.746;4.272;2023-11-22T05:31:21;37.93;;;20.10;;
22129;SDS011;11231;50.746;4.272;2023-11-22T05:33:48;41.57;;;21.60;;
22129;SDS011;11231;50.746;4.272;2023-11-22T05:36:13;39.10;;;22.40;;
22129;SDS011;11231;50.746;4.272;2023-11-22T05:38:41;39.50;;;22.03;;
22129;SDS011;11231;50.746;4.272;2023-11-22T05:41:07;39.67;;;22.13;;
22129;SDS011;11231;50.746;4.272;2023-11-22T05:43:33;39.27;;;22.10;;
22129;SDS011;11231;50.746;4.272;2023-11-22T05:46:02;38.90;;;22.37;;
22129;SDS011;11231;50.746;4.272;2023-11-22T05:48:28;37.03;;;21.27;;
22129;SDS011;11231;50.746;4.272;2023-11-22T05:50:55;38.57;;;20.97;;
22129;SDS011;11231;50.746;4.272;2023-11-22T05:53:21;41.83;;;23.07;;
22129;SDS011;11231;50.746;4.272;2023-11-22T05:55:47;46.87;;;24.40;;
22129;SDS011;11231;50.746;4.272;2023-11-22T05:58:15;41.17;;;22.63;;
22129;SDS011;11231;50.746;4.272;2023-11-22T06:00:46;41.97;;;24.03;;
22129;SDS011;11231;50.746;4.272;2023-11-22T06:03:12;49.33;;;24.07;;
22129;SDS011;11231;50.746;4.272;2023-11-22T06:05:39;46.97;;;25.40;;
22129;SDS011;11231;50.746;4.272;2023-11-22T06:08:05;47.97;;;26.20;;
22129;SDS011;11231;50.746;4.272;2023-11-22T06:10:31;41.93;;;24.23;;
22129;SDS011;11231;50.746;4.272;2023-11-22T06:12:57;47.30;;;25.07;;
22129;SDS011;11231;50.746;4.272;2023-11-22T06:15:22;44.70;;;24.30;;
22129;SDS011;11231;50.746;4.272;2023-11-22T06:17:48;46.10;;;24.23;;
22129;SDS011;11231;50.746;4.272;2023-11-22T06:20:14;44.60;;;24.97;;
22129;SDS011;11231;50.746;4.272;2023-11-22T06:22:40;44.83;;;23.93;;
22129;SDS011;11231;50.746;4.272;2023-11-22T06:25:10;41.70;;;23.13;;
22129;SDS011;11231;50.746;4.272;2023-11-22T06:27:37;43.33;;;24.20;;
22129;SDS011;11231;50.746;4.272;2023-11-22T06:30:03;44.13;;;23.37;;
22129;SDS011;11231;50.746;4.272;2023-11-22T06:32:31;46.90;;;24.80;;
22129;SDS011;11231;50.746;4.272;2023-11-22T06:34:57;43.67;;;23.83;;
22129;SDS011;11231;50.746;4.272;2023-11-22T06:37:23;43.93;;;23.63;;
22129;SDS011;11231;50.746;4.272;2023-11-22T06:39:49;44.50;;;23.37;;
22129;SDS011;11231;50.746;4.272;2023-11-22T06:42:16;44.83;;;23.90;;
22129;SDS011;11231;50.746;4.272;2023-11-22T06:44:42;43.90;;;23.80;;
22129;SDS011;11231;50.746;4.272;2023-11-22T06:47:08;43.93;;;23.67;;
22129;SDS011;11231;50.746;4.272;2023-11-22T06:49:34;44.80;;;24.47;;
22129;SDS011;11231;50.746;4.272;2023-11-22T06:52:00;51.87;;;31.23;;
22129;SDS011;11231;50.746;4.272;2023-11-22T06:54:26;47.37;;;26.43;;
22129;SDS011;11231;50.746;4.272;2023-11-22T06:56:51;44.67;;;24.40;;
22129;SDS011;11231;50.746;4.272;2023-11-22T06:59:18;47.77;;;24.10;;
22129;SDS011;11231;50.746;4.272;2023-11-22T07:01:44;47.30;;;24.10;;
22129;SDS011;11231;50.746;4.272;2023-11-22T07:04:10;42.27;;;22.60;;
22129;SDS011;11231;50.746;4.272;2023-11-22T07:06:36;43.57;;;23.03;;
22129;SDS011;11231;50.746;4.272;2023-11-22T07:09:03;43.60;;;23.33;;
22129;SDS011;11231;50.746;4.272;2023-11-22T07:11:29;41.23;;;22.27;;
22129;SDS011;11231;50.746;4.272;2023-11-22T07:13:56;45.77;;;22.97;;
22129;SDS011;11231;50.746;4.272;2023-11-22T07:16:22;46.23;;;22.83;;
22129;SDS011;11231;50.746;4.272;2023-11-22T07:18:49;43.13;;;23.57;;
22129;SDS011;11231;50.746;4.272;2023-11-22T07:21:15;43.43;;;22.23;;
22129;SDS011;11231;50.746;4.272;2023-11-22T07:23:42;42.20;;;22.53;;
22129;SDS011;11231;50.746;4.272;2023-11-22T07:26:10;43.93;;;22.47;;
22129;SDS011;11231;50.746;4.272;2023-11-22T07:28:36;40.33;;;21.63;;
22129;SDS011;11231;50.746;4.272;2023-11-22T07:31:02;42.63;;;23.40;;
22129;SDS011;11231;50.746;4.272;2023-11-22T07:33:31;46.13;;;23.80;;
22129;SDS011;11231;50.746;4.272;2023-11-22T07:35:57;44.63;;;24.00;;
22129;SDS011;11231;50.746;4.272;2023-11-22T07:38:24;44.67;;;22.77;;
22129;SDS011;11231;50.746;4.272;2023-11-22T07:40:50;42.30;;;22.53;;
22129;SDS011;11231;50.746;4.272;2023-11-22T07:43:16;43.07;;;23.23;;
22129;SDS011;11231;50.746;4.272;2023-11-22T07:45:42;45.50;;;23.87;;
22129;SDS011;11231;50.746;4.272;2023-11-22T07:48:12;45.53;;;23.30;;
22129;SDS011;11231;50.746;4.272;2023-11-22T07:50:38;43.43;;;22.53;;
22129;SDS011;11231;50.746;4.272;2023-11-22T07:53:04;44.27;;;23.20;;
22129;SDS011;11231;50.746;4.272;2023-11-22T07:55:30;42.17;;;21.77;;
22129;SDS011;11231;50.746;4.272;2023-11-22T07:57:56;38.57;;;20.80;;
22129;SDS011;11231;50.746;4.272;2023-11-22T08:00:22;37.47;;;20.97;;
22129;SDS011;11231;50.746;4.272;2023-11-22T08:02:48;39.80;;;21.23;;
22129;SDS011;11231;50.746;4.272;2023-11-22T08:05:14;42.03;;;21.57;;
22129;SDS011;11231;50.746;4.272;2023-11-22T08:07:41;40.53;;;21.60;;
22129;SDS011;11231;50.746;4.272;2023-11-22T08:10:09;40.50;;;21.37;;
22129;SDS011;11231;50.746;4.272;2023-11-22T08:12:45;40.07;;;20.80;;
22129;SDS011;11231;50.746;4.272;2023-11-22T08:15:12;39.60;;;20.90;;
22129;SDS011;11231;50.746;4.272;2023-11-22T08:17:39;36.20;;;20.53;;
22129;SDS011;11231;50.746;4.272;2023-11-22T08:20:06;37.43;;;21.20;;
22129;SDS011;11231;50.746;4.272;2023-11-22T08:22:37;35.43;;;18.97;;
22129;SDS011;11231;50.746;4.272;2023-11-22T08:25:04;37.33;;;20.40;;
22129;SDS011;11231;50.746;4.272;2023-11-22T08:27:31;37.23;;;20.30;;
22129;SDS011;11231;50.746;4.272;2023-11-22T08:29:57;33.73;;;18.80;;
22129;SDS011;11231;50.746;4.272;2023-11-22T08:32:23;35.63;;;19.43;;
22129;SDS011;11231;50.746;4.272;2023-11-22T08:34:52;36.57;;;20.17;;
22129;SDS011;11231;50.746;4.272;2023-11-22T08:37:18;35.97;;;19.90;;
22129;SDS011;11231;50.746;4.272;2023-11-22T08:39:44;32.80;;;18.70;;
22129;SDS011;11231;50.746;4.272;2023-11-22T08:42:10;36.30;;;19.83;;
22129;SDS011;11231;50.746;4.272;2023-11-22T08:44:36;35.97;;;19.40;;
22129;SDS011;11231;50.746;4.272;2023-11-22T08:47:02;33.70;;;19.23;;
22129;SDS011;11231;50.746;4.272;2023-11-22T08:49:31;33.63;;;19.63;;
22129;SDS011;11231;50.746;4.272;2023-11-22T08:51:57;34.20;;;19.83;;
22129;SDS011;11231;50.746;4.272;2023-11-22T08:54:24;38.37;;;19.13;;
22129;SDS011;11231;50.746;4.272;2023-11-22T08:56:54;33.57;;;19.27;;
22129;SDS011;11231;50.746;4.272;2023-11-22T08:59:22;33.37;;;19.63;;
22129;SDS011;11231;50.746;4.272;2023-11-22T09:01:48;32.90;;;18.93;;
22129;SDS011;11231;50.746;4.272;2023-11-22T09:04:14;30.57;;;18.17;;
22129;SDS011;11231;50.746;4.272;2023-11-22T09:06:41;33.57;;;19.07;;
22129;SDS011;11231;50.746;4.272;2023-11-22T09:09:07;31.40;;;18.80;;
22129;SDS011;11231;50.746;4.272;2023-11-22T09:11:33;29.97;;;18.07;;
22129;SDS011;11231;50.746;4.272;2023-11-22T09:14:00;29.73;;;17.70;;
22129;SDS011;11231;50.746;4.272;2023-11-22T09:16:36;31.87;;;18.20;;
22129;SDS011;11231;50.746;4.272;2023-11-22T09:19:03;33.70;;;18.53;;
22129;SDS011;11231;50.746;4.272;2023-11-22T09:21:32;32.33;;;18.27;;
22129;SDS011;11231;50.746;4.272;2023-11-22T09:23:59;30.07;;;17.77;;
22129;SDS011;11231;50.746;4.272;2023-11-22T09:26:25;28.27;;;17.37;;
22129;SDS011;11231;50.746;4.272;2023-11-22T09:28:50;30.80;;;18.40;;
22129;SDS011;11231;50.746;4.272;2023-11-22T09:31:16;30.23;;;17.80;;
22129;SDS011;11231;50.746;4.272;2023-11-22T09:33:45;30.83;;;18.03;;
22129;SDS011;11231;50.746;4.272;2023-11-22T09:36:12;29.03;;;17.23;;
22129;SDS011;11231;50.746;4.272;2023-11-22T09:38:38;30.03;;;17.17;;
22129;SDS011;11231;50.746;4.272;2023-11-22T09:41:04;27.87;;;16.60;;
22129;SDS011;11231;50.746;4.272;2023-11-22T09:43:30;28.77;;;17.63;;
22129;SDS011;11231;50.746;4.272;2023-11-22T09:45:57;29.83;;;16.87;;
22129;SDS011;11231;50.746;4.272;2023-11-22T09:48:23;29.30;;;16.83;;
22129;SDS011;11231;50.746;4.272;2023-11-22T09:53:56;29.77;;;18.70;;
22129;SDS011;11231;50.746;4.272;2023-11-22T09:56:29;30.17;;;17.77;;
22129;SDS011;11231;50.746;4.272;2023-11-22T09:58:58;32.00;;;18.33;;
22129;SDS011;11231;50.746;4.272;2023-11-22T10:01:29;33.47;;;17.47;;
22129;SDS011;11231;50.746;4.272;2023-11-22T10:03:58;30.23;;;18.00;;
22129;SDS011;11231;50.746;4.272;2023-11-22T10:06:24;28.80;;;16.90;;
22129;SDS011;11231;50.746;4.272;2023-11-22T10:08:50;27.53;;;17.00;;
22129;SDS011;11231;50.746;4.272;2023-11-22T10:11:18;27.83;;;16.73;;
22129;SDS011;11231;50.746;4.272;2023-11-22T10:13:46;28.30;;;17.00;;
22129;SDS011;11231;50.746;4.272;2023-11-22T10:16:13;28.43;;;17.30;;
22129;SDS011;11231;50.746;4.272;2023-11-22T10:18:43;29.37;;;17.87;;
22129;SDS011;11231;50.746;4.272;2023-11-22T10:23:57;29.50;;;17.10;;
22129;SDS011;11231;50.746;4.272;2023-11-22T10:26:29;26.23;;;16.20;;
22129;SDS011;11231;50.746;4.272;2023-11-22T10:28:56;27.50;;;16.30;;
22129;SDS011;11231;50.746;4.272;2023-11-22T10:31:22;25.87;;;15.93;;
22129;SDS011;11231;50.746;4.272;2023-11-22T10:33:49;24.47;;;15.57;;
22129;SDS011;11231;50.746;4.272;2023-11-22T10:36:16;24.07;;;15.37;;
22129;SDS011;11231;50.746;4.272;2023-11-22T10:38:46;24.37;;;14.80;;
22129;SDS011;11231;50.746;4.272;2023-11-22T10:41:13;23.80;;;14.80;;
22129;SDS011;11231;50.746;4.272;2023-11-22T10:43:39;25.07;;;15.67;;
22129;SDS011;11231;50.746;4.272;2023-11-22T10:46:07;27.40;;;15.03;;
22129;SDS011;11231;50.746;4.272;2023-11-22T10:48:40;23.00;;;14.70;;
22129;SDS011;11231;50.746;4.272;2023-11-22T10:51:06;26.13;;;15.23;;
22129;SDS011;11231;50.746;4.272;2023-11-22T10:53:40;23.57;;;14.40;;
22129;SDS011;11231;50.746;4.272;2023-11-22T10:56:19;23.13;;;14.60;;
22129;SDS011;11231;50.746;4.272;2023-11-22T10:58:51;23.63;;;13.70;;
22129;SDS011;11231;50.746;4.272;2023-11-22T11:01:20;22.40;;;14.43;;
22129;SDS011;11231;50.746;4.272;2023-11-22T11:06:23;21.53;;;13.17;;
22129;SDS011;11231;50.746;4.272;2023-11-22T11:08:53;19.53;;;12.80;;
22129;SDS011;11231;50.746;4.272;2023-11-22T11:11:24;21.17;;;13.77;;
22129;SDS011;11231;50.746;4.272;2023-11-22T11:13:51;21.63;;;12.73;;
22129;SDS011;11231;50.746;4.272;2023-11-22T11:16:18;22.03;;;13.07;;
22129;SDS011;11231;50.746;4.272;2023-11-22T11:18:45;20.67;;;13.00;;
22129;SDS011;11231;50.746;4.272;2023-11-22T11:21:12;22.30;;;13.23;;
22129;SDS011;11231;50.746;4.272;2023-11-22T11:23:40;21.43;;;14.03;;
22129;SDS011;11231;50.746;4.272;2023-11-22T11:26:16;23.40;;;15.33;;
22129;SDS011;11231;50.746;4.272;2023-11-22T11:28:47;20.77;;;14.00;;
22129;SDS011;11231;50.746;4.272;2023-11-22T11:31:14;26.10;;;14.23;;
22129;SDS011;11231;50.746;4.272;2023-11-22T11:36:30;22.57;;;14.30;;
22129;SDS011;11231;50.746;4.272;2023-11-22T11:38:57;20.77;;;13.73;;
22129;SDS011;11231;50.746;4.272;2023-11-22T11:41:26;21.77;;;13.40;;
22129;SDS011;11231;50.746;4.272;2023-11-22T11:43:54;23.07;;;15.33;;
22129;SDS011;11231;50.746;4.272;2023-11-22T11:46:21;23.83;;;14.97;;
22129;SDS011;11231;50.746;4.272;2023-11-22T11:48:54;22.47;;;14.13;;
22129;SDS011;11231;50.746;4.272;2023-11-22T11:51:27;22.23;;;14.57;;
22129;SDS011;11231;50.746;4.272;2023-11-22T11:53:54;18.73;;;14.10;;
22129;SDS011;11231;50.746;4.272;2023-11-22T11:56:21;18.80;;;13.17;;
22129;SDS011;11231;50.746;4.272;2023-11-22T11:58:48;21.10;;;13.47;;
22129;SDS011;11231;50.746;4.272;2023-11-22T12:01:16;21.13;;;14.13;;
22129;SDS011;11231;50.746;4.272;2023-11-22T12:03:42;18.37;;;13.53;;
22129;SDS011;11231;50.746;4.272;2023-11-22T12:06:09;19.90;;;14.93;;
22129;SDS011;11231;50.746;4.272;2023-11-22T12:08:35;21.87;;;14.20;;
22129;SDS011;11231;50.746;4.272;2023-11-22T12:11:02;18.20;;;13.17;;
22129;SDS011;11231;50.746;4.272;2023-11-22T12:13:29;20.23;;;14.07;;
22129;SDS011;11231;50.746;4.272;2023-11-22T12:15:55;19.80;;;12.93;;
22129;SDS011;11231;50.746;4.272;2023-11-22T12:18:22;18.77;;;13.97;;
22129;SDS011;11231;50.746;4.272;2023-11-22T12:20:55;18.30;;;13.47;;
22129;SDS011;11231;50.746;4.272;2023-11-22T12:23:21;21.00;;;14.23;;
22129;SDS011;11231;50.746;4.272;2023-11-22T12:25:59;19.77;;;13.57;;
22129;SDS011;11231;50.746;4.272;2023-11-22T12:28:27;19.37;;;13.20;;
22129;SDS011;11231;50.746;4.272;2023-11-22T12:30:53;21.27;;;13.90;;
22129;SDS011;11231;50.746;4.272;2023-11-22T12:33:19;20.37;;;13.33;;
22129;SDS011;11231;50.746;4.272;2023-11-22T12:35:45;21.27;;;14.60;;
22129;SDS011;11231;50.746;4.272;2023-11-22T12:38:12;22.93;;;14.63;;
22129;SDS011;11231;50.746;4.272;2023-11-22T12:40:38;21.83;;;14.83;;
22129;SDS011;11231;50.746;4.272;2023-11-22T12:43:09;23.93;;;15.07;;
22129;SDS011;11231;50.746;4.272;2023-11-22T12:45:39;21.20;;;14.73;;
22129;SDS011;11231;50.746;4.272;2023-11-22T12:50:51;21.90;;;14.50;;
22129;SDS011;11231;50.746;4.272;2023-11-22T12:53:19;21.73;;;15.00;;
22129;SDS011;11231;50.746;4.272;2023-11-22T12:55:48;24.77;;;15.47;;
22129;SDS011;11231;50.746;4.272;2023-11-22T12:58:16;23.83;;;15.60;;
22129;SDS011;11231;50.746;4.272;2023-11-22T13:00:43;23.23;;;14.37;;
22129;SDS011;11231;50.746;4.272;2023-11-22T13:03:10;21.30;;;14.23;;
22129;SDS011;11231;50.746;4.272;2023-11-22T13:05:37;20.90;;;14.10;;
22129;SDS011;11231;50.746;4.272;2023-11-22T13:08:09;22.10;;;13.90;;
22129;SDS011;11231;50.746;4.272;2023-11-22T13:10:39;21.57;;;13.83;;
22129;SDS011;11231;50.746;4.272;2023-11-22T13:13:08;24.00;;;13.73;;
22129;SDS011;11231;50.746;4.272;2023-11-22T13:15:34;23.37;;;14.50;;
22129;SDS011;11231;50.746;4.272;2023-11-22T13:18:00;25.70;;;14.90;;
22129;SDS011;11231;50.746;4.272;2023-11-22T13:20:26;22.07;;;13.43;;
22129;SDS011;11231;50.746;4.272;2023-11-22T13:22:53;23.80;;;14.00;;
22129;SDS011;11231;50.746;4.272;2023-11-22T13:25:19;22.93;;;14.40;;
22129;SDS011;11231;50.746;4.272;2023-11-22T13:27:46;23.80;;;14.60;;
22129;SDS011;11231;50.746;4.272;2023-11-22T13:30:13;25.27;;;14.17;;
22129;SDS011;11231;50.746;4.272;2023-11-22T13:32:39;24.63;;;14.33;;
22129;SDS011;11231;50.746;4.272;2023-11-22T13:35:08;23.37;;;15.40;;
22129;SDS011;11231;50.746;4.272;2023-11-22T13:37:41;26.33;;;14.80;;
22129;SDS011;11231;50.746;4.272;2023-11-22T13:40:11;29.20;;;16.60;;
22129;SDS011;11231;50.746;4.272;2023-11-22T13:42:44;29.33;;;15.93;;
22129;SDS011;11231;50.746;4.272;2023-11-22T13:45:11;27.67;;;15.43;;
22129;SDS011;11231;50.746;4.272;2023-11-22T13:47:48;28.90;;;15.07;;
22129;SDS011;11231;50.746;4.272;2023-11-22T13:50:16;27.17;;;14.93;;
22129;SDS011;11231;50.746;4.272;2023-11-22T13:52:51;30.30;;;14.83;;
22129;SDS011;11231;50.746;4.272;2023-11-22T13:55:18;26.17;;;15.73;;
22129;SDS011;11231;50.746;4.272;2023-11-22T13:57:50;27.00;;;15.50;;
22129;SDS011;11231;50.746;4.272;2023-11-22T14:00:20;27.73;;;16.07;;
22129;SDS011;11231;50.746;4.272;2023-11-22T14:02:52;27.77;;;16.03;;
22129;SDS011;11231;50.746;4.272;2023-11-22T14:05:24;30.90;;;16.30;;
22129;SDS011;11231;50.746;4.272;2023-11-22T14:07:51;29.43;;;16.43;;
22129;SDS011;11231;50.746;4.272;2023-11-22T14:10:18;31.33;;;18.03;;
22129;SDS011;11231;50.746;4.272;2023-11-22T14:12:44;28.70;;;17.13;;
22129;SDS011;11231;50.746;4.272;2023-11-22T14:15:12;27.93;;;16.50;;
22129;SDS011;11231;50.746;4.272;2023-11-22T14:17:38;29.30;;;16.33;;
22129;SDS011;11231;50.746;4.272;2023-11-22T14:20:06;29.07;;;16.53;;
22129;SDS011;11231;50.746;4.272;2023-11-22T14:22:34;25.03;;;15.57;;
22129;SDS011;11231;50.746;4.272;2023-11-22T14:25:08;27.57;;;16.40;;
22129;SDS011;11231;50.746;4.272;2023-11-22T14:27:39;26.83;;;15.57;;
22129;SDS011;11231;50.746;4.272;2023-11-22T14:30:08;27.40;;;15.53;;
22129;SDS011;11231;50.746;4.272;2023-11-22T14:32:36;28.30;;;15.50;;
22129;SDS011;11231;50.746;4.272;2023-11-22T14:35:03;28.63;;;16.37;;